createdAt,value
2022-11-25T00:02:43.749Z,99.90
2022-11-25T00:05:45.925Z,99.90
2022-11-25T00:08:50.649Z,99.90
2022-11-25T00:11:52.631Z,99.90
2022-11-25T00:14:54.666Z,99.90
2022-11-25T00:17:56.599Z,99.90
2022-11-25T00:20:59.085Z,99.90
2022-11-25T00:24:02.166Z,99.90
2022-11-25T00:27:05.090Z,99.90
2022-11-25T00:30:07.285Z,99.90
2022-11-25T00:33:09.349Z,99.90
2022-11-25T00:36:19.644Z,99.90
2022-11-25T00:39:24.546Z,99.90
2022-11-25T00:42:45.434Z,99.90
2022-11-25T00:45:47.585Z,99.90
2022-11-25T00:48:49.680Z,99.90
2022-11-25T00:51:51.945Z,99.90
2022-11-25T00:54:54.934Z,99.90
2022-11-25T00:57:56.970Z,99.90
2022-11-25T01:01:02.399Z,99.90
2022-11-25T01:04:05.525Z,99.90
2022-11-25T01:07:07.633Z,99.90
2022-11-25T01:10:10.050Z,99.90
2022-11-25T01:13:12.138Z,99.90
2022-11-25T01:16:17.565Z,99.90
2022-11-25T01:19:20.228Z,99.90
2022-11-25T01:22:22.225Z,99.90
2022-11-25T01:25:24.188Z,99.90
2022-11-25T01:28:26.254Z,99.90
2022-11-25T01:31:31.239Z,99.90
2022-11-25T01:34:34.726Z,99.90
2022-11-25T01:37:36.922Z,99.90
2022-11-25T01:40:39.830Z,99.90
2022-11-25T01:43:42.526Z,99.90
2022-11-25T01:46:44.545Z,99.90
2022-11-25T01:50:06.745Z,99.90
2022-11-25T01:53:11.986Z,99.90
2022-11-25T01:56:15.062Z,99.90
2022-11-25T01:59:17.544Z,99.90
2022-11-25T02:02:20.820Z,99.90
2022-11-25T02:05:46.230Z,99.90
2022-11-25T02:08:51.840Z,99.90
2022-11-25T02:11:54.722Z,99.90
2022-11-25T02:14:58.671Z,99.90
2022-11-25T02:18:01.010Z,99.90
2022-11-25T02:21:02.970Z,99.90
2022-11-25T02:24:09.728Z,99.90
2022-11-25T02:27:12.486Z,99.90
2022-11-25T02:30:16.997Z,99.90
2022-11-25T02:33:19.586Z,99.90
2022-11-25T02:36:23.048Z,99.90
2022-11-25T02:39:25.387Z,99.90
2022-11-25T02:42:28.450Z,99.90
2022-11-25T02:45:39.597Z,99.90
2022-11-25T02:52:05.032Z,99.90
2022-11-25T02:55:07.390Z,99.90
2022-11-25T02:58:09.660Z,99.90
2022-11-25T03:01:11.957Z,99.90
2022-11-25T03:04:13.889Z,99.90
2022-11-25T03:07:15.891Z,99.90
2022-11-25T03:10:18.176Z,99.90
2022-11-25T03:13:20.240Z,99.90
2022-11-25T03:16:22.375Z,99.90
2022-11-25T03:19:24.410Z,99.90
2022-11-25T03:22:26.448Z,99.90
2022-11-25T03:25:28.592Z,99.90
2022-11-25T03:28:30.758Z,99.90
2022-11-25T03:31:32.899Z,99.90
2022-11-25T03:34:35.115Z,99.90
2022-11-25T03:37:37.664Z,99.90
2022-11-25T03:40:39.602Z,99.90
2022-11-25T03:43:41.629Z,99.90
2022-11-25T03:46:43.604Z,99.90
2022-11-25T03:49:45.584Z,99.90
2022-11-25T03:52:47.559Z,99.90
2022-11-25T03:55:49.691Z,99.90
2022-11-25T03:58:51.672Z,99.90
2022-11-25T04:01:53.744Z,99.90
2022-11-25T04:04:55.819Z,99.90
2022-11-25T04:07:58.312Z,99.90
2022-11-25T04:11:00.538Z,99.90
2022-11-25T04:14:02.536Z,99.90
2022-11-25T04:17:04.598Z,99.90
2022-11-25T04:20:07.509Z,99.90
2022-11-25T04:23:11.819Z,99.90
2022-11-25T04:26:13.870Z,99.90
2022-11-25T04:29:15.959Z,99.90
2022-11-25T04:32:18.043Z,99.90
2022-11-25T04:35:20.151Z,99.90
2022-11-25T04:38:22.251Z,99.90
2022-11-25T04:41:24.287Z,99.90
2022-11-25T04:44:26.225Z,99.90
2022-11-25T04:47:29.976Z,99.90
2022-11-25T04:50:31.997Z,99.90
2022-11-25T04:53:34.080Z,99.90
2022-11-25T04:56:36.025Z,99.90
2022-11-25T04:59:40.781Z,99.90
2022-11-25T05:02:42.801Z,99.90
2022-11-25T05:05:44.929Z,99.90
2022-11-25T05:08:50.581Z,99.90
2022-11-25T05:11:52.689Z,99.90
2022-11-25T05:14:55.068Z,99.90
2022-11-25T05:17:56.954Z,99.90
2022-11-25T05:21:03.872Z,99.90
2022-11-25T05:24:06.152Z,99.90
2022-11-25T05:27:08.925Z,99.90
2022-11-25T05:30:11.271Z,99.90
2022-11-25T05:33:13.218Z,99.90
2022-11-25T05:36:15.396Z,99.90
2022-11-25T05:39:17.747Z,99.90
2022-11-25T05:42:19.671Z,99.90
2022-11-25T05:45:21.590Z,99.90
2022-11-25T05:48:23.839Z,99.90
2022-11-25T05:51:26.434Z,99.90
2022-11-25T05:54:28.568Z,99.90
2022-11-25T05:57:31.706Z,99.90
2022-11-25T06:00:38.565Z,99.90
2022-11-25T06:03:41.533Z,99.90
2022-11-25T06:06:43.529Z,99.90
2022-11-25T06:09:45.484Z,99.90
2022-11-25T06:12:48.172Z,99.90
2022-11-25T06:15:50.251Z,99.90
2022-11-25T06:18:52.658Z,99.90
2022-11-25T06:21:54.605Z,99.90
2022-11-25T06:25:01.887Z,99.90
2022-11-25T06:28:12.785Z,99.90
2022-11-25T06:31:18.016Z,99.90
2022-11-25T06:34:20.099Z,99.90
2022-11-25T06:37:22.088Z,99.90
2022-11-25T06:40:24.384Z,99.90
2022-11-25T06:43:26.406Z,99.90
2022-11-25T06:46:28.460Z,99.90
2022-11-25T06:49:30.589Z,99.90
2022-11-25T06:52:33.119Z,99.90
2022-11-25T06:55:35.163Z,99.90
2022-11-25T06:58:37.759Z,99.90
2022-11-25T07:01:39.826Z,99.90
2022-11-25T07:04:41.888Z,99.90
2022-11-25T07:07:43.910Z,99.90
2022-11-25T07:10:46.598Z,99.90
2022-11-25T07:13:51.356Z,99.90
2022-11-25T07:16:54.178Z,99.90
2022-11-25T07:19:56.173Z,99.90
2022-11-25T07:22:58.454Z,99.90
2022-11-25T07:26:12.244Z,99.90
2022-11-25T07:29:50.077Z,99.90
2022-11-25T07:32:38.255Z,99.90
2022-11-25T07:35:40.254Z,99.90
2022-11-25T07:38:46.475Z,99.90
2022-11-25T07:41:53.836Z,99.90
2022-11-25T07:44:56.131Z,99.90
2022-11-25T07:47:58.083Z,99.90
2022-11-25T07:51:00.058Z,99.90
2022-11-25T07:54:04.224Z,99.90
2022-11-25T07:57:06.203Z,99.90
2022-11-25T08:00:08.999Z,99.90
2022-11-25T08:03:11.110Z,99.90
2022-11-25T08:06:16.703Z,99.90
2022-11-25T08:09:21.454Z,99.90
2022-11-25T08:12:23.477Z,99.90
2022-11-25T08:15:25.486Z,99.90
2022-11-25T08:18:28.258Z,99.90
2022-11-25T08:21:30.372Z,99.90
2022-11-25T08:24:32.406Z,99.90
2022-11-25T08:27:34.393Z,99.90
2022-11-25T08:30:36.461Z,99.90
2022-11-25T08:33:39.320Z,99.90
2022-11-25T08:36:45.155Z,99.90
2022-11-25T08:39:53.185Z,99.90
2022-11-25T08:42:55.726Z,99.90
2022-11-25T08:45:57.883Z,99.90
2022-11-25T08:49:00.461Z,99.90
2022-11-25T08:52:02.448Z,99.90
2022-11-25T08:55:04.843Z,99.90
2022-11-25T08:58:10.173Z,99.90
2022-11-25T09:01:13.386Z,99.90
2022-11-25T09:04:15.462Z,99.90
2022-11-25T09:07:17.679Z,99.90
2022-11-25T09:10:19.944Z,99.90
2022-11-25T09:13:22.043Z,99.90
2022-11-25T09:16:26.813Z,99.90
2022-11-25T09:19:29.043Z,99.90
2022-11-25T09:22:32.003Z,99.90
2022-11-25T09:25:34.839Z,99.90
2022-11-25T09:28:37.143Z,99.90
2022-11-25T09:31:40.320Z,99.40
2022-11-25T09:34:42.401Z,96.70
2022-11-25T09:37:44.585Z,97.90
2022-11-25T09:40:58.559Z,98.90
2022-11-25T09:44:57.615Z,99.90
2022-11-25T09:48:28.839Z,99.90
2022-11-25T09:52:03.277Z,99.90
2022-11-25T09:55:15.099Z,99.90
2022-11-25T09:58:23.039Z,99.90
2022-11-25T10:01:28.607Z,99.90
2022-11-25T10:04:37.760Z,99.90
2022-11-25T10:08:01.395Z,99.90
2022-11-25T10:11:26.533Z,99.90
2022-11-25T10:14:34.413Z,99.90
2022-11-25T10:17:51.474Z,99.90
2022-11-25T10:20:54.523Z,99.90
2022-11-25T10:23:57.251Z,99.90
2022-11-25T10:27:06.033Z,99.90
2022-11-25T10:30:26.003Z,99.90
2022-11-25T10:33:32.317Z,99.90
2022-11-25T10:36:39.330Z,99.90
2022-11-25T10:39:41.340Z,99.90
2022-11-25T10:42:43.908Z,99.90
2022-11-25T10:46:05.558Z,98.80
2022-11-25T10:49:30.157Z,99.90
2022-11-25T10:52:37.644Z,97.20
2022-11-25T10:55:39.728Z,98.00
2022-11-25T10:58:42.539Z,99.90
2022-11-25T11:01:44.524Z,99.60
2022-11-25T11:05:00.448Z,96.70
2022-11-25T11:08:36.275Z,97.10
2022-11-25T11:11:48.899Z,97.40
2022-11-25T11:14:52.208Z,98.60
2022-11-25T11:17:56.063Z,99.90
2022-11-25T11:21:00.332Z,94.00
2022-11-25T11:24:03.746Z,97.00
2022-11-25T11:27:26.015Z,92.10
2022-11-25T11:30:33.081Z,93.40
2022-11-25T11:33:43.202Z,92.10
2022-11-25T11:37:00.511Z,92.00
2022-11-25T11:40:14.902Z,91.40
2022-11-25T11:43:32.062Z,90.00
2022-11-25T11:46:42.986Z,84.70
2022-11-25T11:50:09.071Z,80.40
2022-11-25T11:53:28.875Z,84.50
2022-11-25T11:56:55.516Z,86.90
2022-11-25T12:00:06.452Z,86.30
2022-11-25T12:03:25.490Z,81.70
2022-11-25T12:06:31.646Z,80.60
2022-11-25T12:09:43.260Z,83.10
2022-11-25T12:12:48.382Z,82.60
2022-11-25T12:15:59.496Z,81.40
2022-11-25T12:19:19.488Z,80.80
2022-11-25T12:22:32.556Z,78.60
2022-11-25T12:25:41.132Z,79.70
2022-11-25T12:28:52.017Z,74.10
2022-11-25T12:32:08.016Z,71.80
2022-11-25T12:35:09.964Z,75.10
2022-11-25T12:38:24.441Z,77.80
2022-11-25T12:41:51.144Z,72.30
2022-11-25T12:45:24.924Z,74.00
2022-11-25T12:48:26.990Z,74.40
2022-11-25T12:51:44.985Z,73.30
2022-11-25T12:55:17.806Z,75.20
2022-11-25T12:59:01.932Z,74.70
2022-11-25T13:02:30.191Z,72.90
2022-11-25T13:05:50.167Z,74.80
2022-11-25T13:09:20.113Z,78.30
2022-11-25T13:12:38.529Z,75.60
2022-11-25T13:15:49.230Z,75.50
2022-11-25T13:18:52.315Z,75.60
2022-11-25T13:22:27.120Z,77.40
2022-11-25T13:25:32.196Z,77.50
2022-11-25T13:28:38.368Z,77.00
2022-11-25T13:31:59.372Z,74.40
2022-11-25T13:35:26.437Z,73.30
2022-11-25T13:38:59.195Z,73.30
2022-11-25T13:42:25.523Z,74.20
2022-11-25T13:45:35.216Z,75.10
2022-11-25T13:48:38.181Z,73.90
2022-11-25T13:51:50.639Z,72.30
2022-11-25T13:54:55.596Z,73.30
2022-11-25T13:58:10.033Z,71.30
2022-11-25T14:01:29.887Z,71.50
2022-11-25T14:04:53.591Z,69.70
2022-11-25T14:08:11.984Z,66.20
2022-11-25T14:11:33.024Z,64.60
2022-11-25T14:14:50.051Z,63.10
2022-11-25T14:18:10.312Z,61.40
2022-11-25T14:21:30.967Z,60.80
2022-11-25T14:24:52.497Z,58.00
2022-11-25T14:28:26.851Z,61.60
2022-11-25T14:31:44.896Z,64.70
2022-11-25T14:34:57.046Z,72.00
2022-11-25T14:38:25.188Z,81.50
2022-11-25T14:41:38.564Z,88.50
2022-11-25T14:45:01.195Z,93.00
2022-11-25T14:48:15.378Z,94.80
2022-11-25T14:51:18.679Z,97.20
2022-11-25T14:54:21.858Z,98.80
2022-11-25T14:57:27.471Z,99.90
2022-11-25T15:00:31.022Z,99.90
2022-11-25T15:03:33.205Z,99.90
2022-11-25T15:06:38.049Z,99.90
2022-11-25T15:09:42.978Z,99.90
2022-11-25T15:12:48.969Z,99.90
2022-11-25T15:15:55.908Z,99.90
2022-11-25T15:19:01.843Z,99.90
2022-11-25T15:22:23.376Z,99.90
2022-11-25T15:25:26.270Z,99.90
2022-11-25T15:28:38.851Z,99.90
2022-11-25T15:31:44.234Z,99.90
2022-11-25T15:34:47.597Z,99.90
2022-11-25T15:37:49.976Z,99.90
2022-11-25T15:40:56.289Z,99.90
2022-11-25T15:44:01.655Z,99.90
2022-11-25T15:47:15.167Z,99.90
2022-11-25T15:50:25.296Z,99.90
2022-11-25T15:53:32.983Z,99.90
2022-11-25T15:56:38.859Z,99.90
2022-11-25T15:59:55.948Z,99.90
2022-11-25T16:02:58.724Z,99.90
2022-11-25T16:06:01.983Z,99.90
2022-11-25T16:09:20.160Z,99.90
2022-11-25T16:12:22.196Z,99.90
2022-11-25T16:15:59.596Z,99.90
2022-11-25T16:19:15.951Z,99.90
2022-11-25T16:22:19.951Z,99.90
2022-11-25T16:25:22.045Z,99.90
2022-11-25T16:28:24.844Z,99.90
2022-11-25T16:31:27.729Z,99.90
2022-11-25T16:34:30.846Z,99.90
2022-11-25T16:37:32.933Z,99.90
2022-11-25T16:40:39.241Z,99.90
2022-11-25T16:43:41.273Z,99.90
2022-11-25T16:46:43.481Z,99.90
2022-11-25T16:49:46.654Z,99.90
2022-11-25T16:52:49.734Z,99.90
2022-11-25T16:55:51.800Z,99.90
2022-11-25T16:58:55.152Z,99.90
2022-11-25T17:01:59.166Z,99.90
2022-11-25T17:05:19.030Z,99.90
2022-11-25T17:08:21.734Z,99.90
2022-11-25T17:11:35.383Z,99.90
2022-11-25T17:14:38.511Z,99.90
2022-11-25T17:17:41.089Z,99.90
2022-11-25T17:20:43.778Z,99.90
2022-11-25T17:23:47.245Z,99.90
2022-11-25T17:26:57.576Z,99.90
2022-11-25T17:30:02.816Z,99.90
2022-11-25T17:33:11.230Z,99.90
2022-11-25T17:36:13.460Z,99.90
2022-11-25T17:39:15.619Z,99.90
2022-11-25T17:42:22.826Z,99.90
2022-11-25T17:45:24.957Z,99.90
2022-11-25T17:48:27.449Z,99.90
2022-11-25T17:51:29.942Z,99.90
2022-11-25T17:54:32.173Z,99.90
2022-11-25T17:57:35.054Z,99.90
2022-11-25T18:00:40.096Z,99.90
2022-11-25T18:03:42.494Z,99.90
2022-11-25T18:06:44.733Z,99.90
2022-11-25T18:09:47.204Z,99.90
2022-11-25T18:12:50.606Z,99.90
2022-11-25T18:15:52.919Z,99.90
2022-11-25T18:18:54.956Z,99.90
2022-11-25T18:22:01.083Z,99.90
2022-11-25T18:25:08.100Z,99.90
2022-11-25T18:28:21.875Z,99.90
2022-11-25T18:31:25.040Z,99.90
2022-11-25T18:34:28.002Z,99.90
2022-11-25T18:37:30.346Z,99.90
2022-11-25T18:40:33.199Z,99.90
2022-11-25T18:43:38.007Z,99.90
2022-11-25T18:46:40.098Z,99.90
2022-11-25T18:49:42.539Z,99.90
2022-11-25T18:52:45.921Z,99.90
2022-11-25T18:55:49.175Z,99.90
2022-11-25T18:58:52.400Z,99.90
2022-11-25T19:01:55.394Z,99.90
2022-11-25T19:04:59.441Z,99.90
2022-11-25T19:08:02.389Z,99.90
2022-11-25T19:11:05.042Z,99.90
2022-11-25T19:14:19.236Z,99.90
2022-11-25T19:17:24.775Z,99.90
2022-11-25T19:20:28.895Z,99.90
2022-11-25T19:23:31.355Z,99.90
2022-11-25T19:26:41.601Z,99.90
2022-11-25T19:29:47.345Z,99.90
2022-11-25T19:32:56.476Z,99.90
2022-11-25T19:35:59.332Z,99.90
2022-11-25T19:39:01.781Z,99.90
2022-11-25T19:42:04.142Z,99.90
2022-11-25T19:45:07.166Z,99.90
2022-11-25T19:48:15.005Z,99.90
2022-11-25T19:51:18.268Z,99.90
2022-11-25T19:54:20.938Z,99.90
2022-11-25T19:57:24.714Z,99.90
2022-11-25T20:00:27.506Z,99.90
2022-11-25T20:03:31.355Z,99.90
2022-11-25T20:06:34.222Z,99.90
2022-11-25T20:09:36.747Z,99.90
2022-11-25T20:12:38.742Z,99.90
2022-11-25T20:15:41.825Z,99.90
2022-11-25T20:18:45.522Z,99.90
2022-11-25T20:21:48.650Z,99.90
2022-11-25T20:24:51.587Z,99.90
2022-11-25T20:27:54.159Z,99.90
2022-11-25T20:30:59.163Z,99.90
2022-11-25T20:34:02.631Z,99.90
2022-11-25T20:37:05.205Z,99.90
2022-11-25T20:40:16.522Z,99.90
2022-11-25T20:43:39.663Z,99.90
2022-11-25T20:46:42.150Z,99.90
2022-11-25T20:49:46.103Z,99.90
2022-11-25T20:52:50.323Z,99.90
2022-11-25T20:55:52.590Z,99.90
2022-11-25T20:58:54.729Z,99.90
2022-11-25T21:01:57.220Z,99.90
2022-11-25T21:04:59.742Z,99.90
2022-11-25T21:08:01.849Z,99.90
2022-11-25T21:11:05.026Z,99.90
2022-11-25T21:14:13.835Z,99.90
2022-11-25T21:17:16.479Z,99.90
2022-11-25T21:20:23.269Z,99.90
2022-11-25T21:23:30.306Z,99.90
2022-11-25T21:26:32.402Z,99.90
2022-11-25T21:29:34.447Z,99.90
2022-11-25T21:32:36.558Z,99.90
2022-11-25T21:35:41.351Z,99.90
2022-11-25T21:38:44.211Z,99.90
2022-11-25T21:41:46.352Z,99.90
2022-11-25T21:44:50.057Z,99.90
2022-11-25T21:47:52.282Z,99.90
2022-11-25T21:50:54.471Z,99.90
2022-11-25T21:53:56.596Z,99.90
2022-11-25T21:56:58.769Z,99.90
2022-11-25T22:00:01.157Z,99.90
2022-11-25T22:03:03.649Z,99.90
2022-11-25T22:06:23.506Z,99.90
2022-11-25T22:09:26.765Z,99.90
2022-11-25T22:12:30.685Z,99.90
2022-11-25T22:15:34.956Z,99.90
2022-11-25T22:18:37.069Z,99.90
2022-11-25T22:21:39.126Z,99.90
2022-11-25T22:24:41.213Z,99.90
2022-11-25T22:27:43.859Z,99.90
2022-11-25T22:30:55.673Z,99.90
2022-11-25T22:33:57.739Z,99.90
2022-11-25T22:36:59.752Z,99.90
2022-11-25T22:40:01.747Z,99.90
2022-11-25T22:43:04.025Z,99.90
2022-11-25T22:46:06.171Z,99.90
2022-11-25T22:49:28.804Z,99.90
2022-11-25T22:52:35.760Z,99.90
2022-11-25T22:55:37.740Z,99.90
2022-11-25T22:58:39.754Z,99.90
2022-11-25T23:01:42.025Z,99.90
2022-11-25T23:04:46.715Z,99.90
2022-11-25T23:07:48.902Z,99.90
2022-11-25T23:10:52.117Z,99.90
2022-11-25T23:13:54.228Z,99.90
2022-11-25T23:16:56.327Z,99.90
2022-11-25T23:19:58.699Z,99.90
2022-11-25T23:23:12.612Z,99.90
2022-11-25T23:29:34.994Z,99.90
2022-11-25T23:32:37.190Z,99.90
2022-11-25T23:35:39.829Z,99.90
2022-11-25T23:38:45.096Z,99.90
2022-11-25T23:41:47.806Z,99.90
2022-11-25T23:44:50.113Z,99.90
2022-11-25T23:47:53.997Z,99.90
2022-11-25T23:50:59.121Z,99.90
2022-11-25T23:54:01.604Z,99.90
2022-11-25T23:57:03.707Z,99.90
